Pagrindinis puslapis
METAR-TAF:

METAR-TAF

Oro uostai :

Alta Floresta, Mato Grosas, Brazilija

platuma: 09-52S, ilguma: 056-06W, Aukštis: 288 m

Dabartinis oras

Ataskaita buvo paskelbta 42 minutes, ne 22:00 UTC
Vėjas 4 kt iš Šiaurės Vakarų
Temperatūra 33°C
Drėgmė 44%
Slėgis 1009 hPa
Matomumas 10 km arba daugiau
Mažai debesys ne aukštis 4000 ft

METAR: SBAT 162200Z 31004KT 9999 FEW040 33/19 Q1009

Laikas: 18:42 (22:42 UTC)

Prognozė

Ataskaita buvo paskelbta 7 valandos ir 19 minutes, ne 15:23 UTC
Prognozė galioja nuo 16 metu 18 UTC su 17 metu 06 UTC
Vėjas 5 kt iš Šiaurės/Šiaurės Rytų
Matomumas 10 km arba daugiau

TAF: SBAT 161523Z 1618/1706 03005KT 9999 FEW040TX38/1618Z TN35/1621Z RMK PHI

Orai ataskaitas ir orų prognozės (METAR, TAF).

turimą stotys yra geltonos ir raudonos taškus žemėlapyje.

Perkelti pele per norėdami pamatyti stoties vardą.

Tada spustelėkite, norėdami matyti oro stebėjimo ir prognozės.

Norėdami pakeisti žemėlapį: spustelėkite ant žalios mygtukų su juodo kryžiaus žemyn,; žalią mygtuką su brūkšneliu, jei norite nutolinti; arba žalių rodyklių gretimoms žemėlapius.


METAR-TAF: